Time;durP1;ratioP1;P1;durP2;ratioP2;P2;SDS_P1;SDS_P2;PMS_P1;PMS_P2;Temp;Humidity;BMP_temperature;BMP_pressure;BME280_temperature;BME280_humidity;BME280_pressure;Samples;Min_cycle;Max_cycle;Signal;HPM_P1;HPM_P2
2021/06/16 00:00:23;;;;;;;3.63;3.33;;;18.40;99.90;;;;;;5034427;28;20418;-67
2021/06/16 00:02:48;;;;;;;2.80;2.60;;;18.40;99.90;;;;;;5034682;28;20575;-66
2021/06/16 00:05:21;;;;;;;3.50;2.93;;;18.30;99.90;;;;;;5034278;28;20524;-66
2021/06/16 00:07:48;;;;;;;3.20;3.00;;;18.30;99.90;;;;;;5034250;28;20194;-66
2021/06/16 00:10:15;;;;;;;4.17;3.10;;;18.30;99.90;;;;;;5034399;28;20465;-66
2021/06/16 00:12:42;;;;;;;3.50;3.20;;;18.30;99.90;;;;;;5034394;28;20416;-67
2021/06/16 00:15:16;;;;;;;3.57;3.30;;;18.20;99.90;;;;;;5034375;28;20899;-66
2021/06/16 00:17:42;;;;;;;4.00;3.70;;;18.30;99.90;;;;;;5033842;28;20433;-66
2021/06/16 00:20:09;;;;;;;3.00;2.80;;;18.30;99.90;;;;;;5034115;28;20850;-66
2021/06/16 00:22:34;;;;;;;7.30;3.20;;;18.20;99.90;;;;;;5034147;28;20410;-67
2021/06/16 00:25:00;;;;;;;3.60;3.30;;;18.20;99.90;;;;;;5033947;28;20413;-66
2021/06/16 00:27:25;;;;;;;3.30;3.10;;;18.20;99.90;;;;;;5033390;28;20269;-66
2021/06/16 00:29:51;;;;;;;3.33;3.03;;;18.20;99.90;;;;;;5034088;28;20526;-66
2021/06/16 00:32:17;;;;;;;2.93;2.70;;;18.20;99.90;;;;;;5034182;28;20217;-67
2021/06/16 00:34:42;;;;;;;2.50;2.30;;;18.10;99.90;;;;;;5034117;28;20202;-66
2021/06/16 00:37:08;;;;;;;2.60;2.50;;;18.10;99.90;;;;;;5033425;28;20198;-67
2021/06/16 00:39:33;;;;;;;3.37;3.07;;;18.10;99.90;;;;;;5033905;28;20203;-66
2021/06/16 00:42:00;;;;;;;3.30;2.80;;;18.10;99.90;;;;;;5034176;28;20182;-67
2021/06/16 00:44:26;;;;;;;2.83;2.53;;;18.10;99.90;;;;;;5033607;28;20216;-67
2021/06/16 00:46:51;;;;;;;2.47;2.20;;;18.10;99.90;;;;;;5033153;28;20447;-66
2021/06/16 00:49:17;;;;;;;2.77;2.57;;;18.10;99.90;;;;;;5033524;28;20281;-66
2021/06/16 00:51:43;;;;;;;2.60;2.40;;;18.00;99.90;;;;;;5033487;28;20178;-67
2021/06/16 00:54:11;;;;;;;2.80;2.60;;;18.00;99.90;;;;;;5033877;28;20183;-67
2021/06/16 00:56:39;;;;;;;2.53;2.33;;;17.90;99.90;;;;;;5033355;28;20265;-66
2021/06/16 00:59:07;;;;;;;2.90;2.70;;;17.90;99.90;;;;;;5033740;28;20408;-67
2021/06/16 01:01:39;;;;;;;5.13;2.70;;;17.90;99.90;;;;;;5033775;28;20759;-67
2021/06/16 01:04:22;;;;;;;4.23;2.97;;;17.90;99.90;;;;;;5033720;28;20420;-67
2021/06/16 01:06:54;;;;;;;2.33;2.20;;;17.90;99.90;;;;;;5015336;28;20432;-67
2021/06/16 01:09:25;;;;;;;2.57;2.33;;;17.90;99.90;;;;;;5033400;28;20449;-67
2021/06/16 01:11:55;;;;;;;2.17;2.07;;;17.90;99.90;;;;;;5033617;28;20393;-67
2021/06/16 01:14:29;;;;;;;2.17;2.07;;;17.90;99.90;;;;;;5033227;28;20401;-66
2021/06/16 01:17:00;;;;;;;2.20;2.10;;;17.80;99.90;;;;;;5032920;28;20452;-66
2021/06/16 01:19:45;;;;;;;2.70;2.50;;;17.70;99.90;;;;;;5033291;28;20491;-67
2021/06/16 01:22:23;;;;;;;2.53;2.30;;;17.70;99.90;;;;;;5013676;28;20515;-65
2021/06/16 01:24:52;;;;;;;2.57;2.37;;;17.70;99.90;;;;;;5013245;28;20489;-66
2021/06/16 01:27:19;;;;;;;3.27;2.97;;;17.60;99.90;;;;;;5012986;28;20529;-66
2021/06/16 01:29:45;;;;;;;3.00;2.70;;;17.60;99.90;;;;;;5013385;28;20548;-66
2021/06/16 01:32:11;;;;;;;2.43;2.23;;;17.60;99.90;;;;;;5013689;28;20432;-66
2021/06/16 01:34:37;;;;;;;2.07;1.97;;;17.60;99.90;;;;;;5015329;28;20403;-66
2021/06/16 01:37:04;;;;;;;1.93;1.83;;;17.70;99.90;;;;;;5032721;28;20673;-67
2021/06/16 01:39:34;;;;;;;2.33;2.03;;;17.70;99.90;;;;;;5015270;28;20934;-66
2021/06/16 01:42:06;;;;;;;3.00;2.80;;;17.60;99.90;;;;;;5033615;28;20478;-66
2021/06/16 01:44:33;;;;;;;2.97;2.33;;;17.60;99.90;;;;;;5033281;28;20909;-66
2021/06/16 01:47:00;;;;;;;3.10;2.83;;;17.60;99.90;;;;;;5032582;28;20439;-66
2021/06/16 01:49:27;;;;;;;2.40;2.20;;;17.50;99.90;;;;;;5032740;28;20448;-66
2021/06/16 01:51:54;;;;;;;2.83;2.50;;;17.50;99.90;;;;;;5032832;28;20826;-66
2021/06/16 01:54:21;;;;;;;2.50;2.30;;;17.50;99.90;;;;;;5032674;28;20424;-67
2021/06/16 01:56:49;;;;;;;2.50;2.30;;;17.50;99.90;;;;;;5032755;28;20818;-66
2021/06/16 01:59:16;;;;;;;2.63;2.43;;;17.50;99.90;;;;;;5032944;28;20393;-66
2021/06/16 02:01:42;;;;;;;5.10;2.93;;;17.50;99.90;;;;;;5033127;28;20851;-65
2021/06/16 02:04:08;;;;;;;2.70;2.50;;;17.50;99.90;;;;;;5015039;28;20523;-66
2021/06/16 02:06:40;;;;;;;2.77;2.57;;;17.40;99.90;;;;;;5032541;28;20413;-65
2021/06/16 02:09:08;;;;;;;2.43;2.27;;;17.40;99.90;;;;;;5032935;28;20202;-66
2021/06/16 02:11:37;;;;;;;2.50;2.20;;;17.40;99.90;;;;;;5032950;28;20424;-66
2021/06/16 02:14:05;;;;;;;2.20;2.10;;;17.30;99.90;;;;;;5032704;28;20417;-65
2021/06/16 02:16:47;;;;;;;2.47;2.27;;;17.30;99.90;;;;;;5014404;28;20946;-66
2021/06/16 02:19:16;;;;;;;3.03;2.73;;;17.30;99.90;;;;;;5033003;28;20409;-66
2021/06/16 02:21:44;;;;;;;7.20;2.47;;;17.20;99.90;;;;;;5032971;28;20412;-66
2021/06/16 02:24:10;;;;;;;3.20;2.30;;;17.20;99.90;;;;;;5032798;28;20412;-65
2021/06/16 02:26:37;;;;;;;6.20;3.60;;;17.20;99.90;;;;;;5032240;28;20409;-66
2021/06/16 02:29:08;;;;;;;2.60;2.47;;;17.10;99.90;;;;;;5032480;28;20547;-66
2021/06/16 02:31:34;;;;;;;3.13;2.93;;;17.10;99.90;;;;;;5032872;28;20412;-66
2021/06/16 02:34:00;;;;;;;3.50;2.93;;;17.20;99.90;;;;;;5032770;28;20401;-66
2021/06/16 02:36:28;;;;;;;4.20;2.80;;;17.20;99.90;;;;;;5032104;28;20423;-66
2021/06/16 02:39:07;;;;;;;3.33;2.60;;;17.10;99.90;;;;;;5035498;28;20490;-65
2021/06/16 02:41:35;;;;;;;3.63;3.30;;;17.00;99.90;;;;;;5036296;28;20921;-66
2021/06/16 02:44:02;;;;;;;3.10;2.43;;;17.10;99.90;;;;;;5036223;28;20409;-65
2021/06/16 02:46:30;;;;;;;3.10;2.90;;;17.00;99.90;;;;;;5035632;28;20437;-65
2021/06/16 02:48:57;;;;;;;3.20;2.90;;;17.00;99.90;;;;;;5036036;28;20887;-66
2021/06/16 02:51:23;;;;;;;3.30;2.50;;;16.90;99.90;;;;;;5035621;28;20431;-66
2021/06/16 02:53:49;;;;;;;3.63;3.10;;;16.90;99.90;;;;;;5035556;28;20432;-66
2021/06/16 02:56:16;;;;;;;2.80;2.60;;;16.90;99.90;;;;;;5035195;28;20186;-66
2021/06/16 02:58:46;;;;;;;3.50;3.20;;;16.90;99.90;;;;;;5035610;28;20432;-67
2021/06/16 03:01:17;;;;;;;3.30;3.10;;;16.90;99.90;;;;;;5035776;28;20420;-66
2021/06/16 03:03:50;;;;;;;3.20;3.00;;;16.90;99.90;;;;;;5035527;28;20432;-66
2021/06/16 03:06:22;;;;;;;2.60;2.40;;;16.90;99.90;;;;;;5035267;28;20427;-67
2021/06/16 03:08:50;;;;;;;4.83;2.70;;;16.90;99.90;;;;;;5035407;28;20459;-67
2021/06/16 03:11:16;;;;;;;2.70;2.47;;;16.90;99.90;;;;;;5035313;28;20428;-66
2021/06/16 03:13:45;;;;;;;2.90;2.70;;;16.80;99.90;;;;;;5035589;28;20497;-66
2021/06/16 03:16:11;;;;;;;2.90;2.30;;;16.80;99.90;;;;;;5034819;28;20478;-65
2021/06/16 03:18:37;;;;;;;3.73;3.40;;;16.80;99.90;;;;;;5035371;28;20435;-67
2021/06/16 03:21:03;;;;;;;3.30;3.10;;;16.80;99.90;;;;;;5035525;28;20894;-67
2021/06/16 03:23:30;;;;;;;3.33;3.13;;;16.70;99.90;;;;;;5035090;28;20913;-66
2021/06/16 03:25:57;;;;;;;3.57;3.27;;;16.70;99.90;;;;;;5034630;28;20440;-67
2021/06/16 03:28:24;;;;;;;3.20;3.00;;;16.70;99.90;;;;;;5035250;28;20798;-67
2021/06/16 03:30:56;;;;;;;3.50;3.20;;;16.70;99.90;;;;;;5035243;28;20470;-66
2021/06/16 03:33:22;;;;;;;2.50;2.37;;;16.60;99.90;;;;;;5035210;28;20436;-66
2021/06/16 03:35:49;;;;;;;3.10;2.90;;;16.60;99.90;;;;;;5034933;28;20825;-67
2021/06/16 03:38:16;;;;;;;3.40;3.03;;;16.60;99.90;;;;;;5034805;28;20487;-66
2021/06/16 03:40:43;;;;;;;3.10;2.80;;;16.60;99.90;;;;;;5035077;28;20530;-66
2021/06/16 03:43:11;;;;;;;2.90;2.70;;;16.70;99.90;;;;;;5035136;28;20456;-66
2021/06/16 03:45:39;;;;;;;3.50;3.20;;;16.80;99.90;;;;;;5034629;28;20482;-66
2021/06/16 03:48:07;;;;;;;3.50;2.77;;;16.80;99.90;;;;;;5034315;28;20444;-66
2021/06/16 03:50:36;;;;;;;2.77;2.57;;;16.90;99.90;;;;;;5017103;28;20468;-67
2021/06/16 03:53:02;;;;;;;2.63;2.43;;;16.90;99.90;;;;;;5034686;28;20405;-67
2021/06/16 03:55:29;;;;;;;3.40;3.10;;;16.80;99.90;;;;;;5034527;28;20467;-67
2021/06/16 03:57:56;;;;;;;5.13;3.23;;;16.80;99.90;;;;;;5034334;28;20425;-66
2021/06/16 04:00:23;;;;;;;3.00;2.80;;;16.90;99.90;;;;;;5033994;28;20424;-67
2021/06/16 04:02:49;;;;;;;2.10;2.00;;;16.90;99.90;;;;;;5034319;28;20428;-67
2021/06/16 04:05:16;;;;;;;3.03;2.83;;;17.00;99.90;;;;;;5034330;28;20423;-66
2021/06/16 04:07:46;;;;;;;2.73;2.53;;;17.10;99.90;;;;;;5033916;28;20445;-66
2021/06/16 04:10:13;;;;;;;3.43;3.13;;;17.10;99.90;;;;;;5034337;28;20551;-65
2021/06/16 04:12:39;;;;;;;3.33;2.47;;;17.10;99.90;;;;;;5034549;28;20444;-66
2021/06/16 04:15:05;;;;;;;2.63;2.43;;;17.20;99.90;;;;;;5034134;28;20433;-66
2021/06/16 04:17:31;;;;;;;2.97;2.73;;;17.20;99.90;;;;;;5033950;28;20437;-66
2021/06/16 04:19:57;;;;;;;3.10;2.90;;;17.20;99.90;;;;;;5034514;28;20397;-66
2021/06/16 04:22:23;;;;;;;3.53;3.30;;;17.40;99.90;;;;;;5033953;28;20784;-66
2021/06/16 04:24:48;;;;;;;2.80;2.60;;;17.40;99.90;;;;;;5016108;28;20890;-66
2021/06/16 04:27:15;;;;;;;2.80;2.60;;;17.50;99.90;;;;;;5033903;28;20663;-66
2021/06/16 04:29:41;;;;;;;2.77;2.57;;;17.70;99.90;;;;;;5034097;28;20194;-66
2021/06/16 04:32:10;;;;;;;3.33;3.03;;;17.80;99.90;;;;;;5034205;28;20429;-66
2021/06/16 04:34:37;;;;;;;3.30;3.00;;;18.00;99.90;;;;;;5034120;28;20777;-66
2021/06/16 04:37:03;;;;;;;2.27;2.13;;;18.10;99.90;;;;;;5033477;28;20454;-66
2021/06/16 04:39:29;;;;;;;2.40;2.30;;;18.30;99.90;;;;;;5033702;28;20956;-66
2021/06/16 04:41:55;;;;;;;2.70;2.60;;;18.50;99.90;;;;;;5033611;28;20438;-66
2021/06/16 04:44:20;;;;;;;2.83;2.53;;;18.70;99.90;;;;;;5033733;28;20172;-66
2021/06/16 04:46:48;;;;;;;2.80;2.37;;;18.80;99.90;;;;;;5033384;28;20565;-66
2021/06/16 04:49:15;;;;;;;3.60;2.67;;;19.00;99.90;;;;;;5033748;28;20199;-66
2021/06/16 04:51:40;;;;;;;3.70;3.20;;;19.10;99.90;;;;;;5033835;28;20416;-66
2021/06/16 04:54:10;;;;;;;4.13;3.73;;;19.10;99.90;;;;;;5033321;28;20954;-67
2021/06/16 04:56:37;;;;;;;3.87;3.47;;;19.00;99.90;;;;;;5015479;28;20180;-68
2021/06/16 04:59:02;;;;;;;4.87;2.80;;;19.00;99.90;;;;;;5033637;28;20541;-67
2021/06/16 05:01:28;;;;;;;4.33;3.20;;;18.90;99.90;;;;;;5032936;28;20894;-68
2021/06/16 05:03:54;;;;;;;4.30;3.43;;;18.90;99.90;;;;;;5033690;28;20303;-66
2021/06/16 05:06:19;;;;;;;5.00;2.87;;;19.00;99.90;;;;;;5015456;28;20176;-68
2021/06/16 05:08:45;;;;;;;3.20;2.90;;;19.00;99.90;;;;;;5033509;28;20302;-67
2021/06/16 05:11:11;;;;;;;3.23;3.03;;;19.10;99.90;;;;;;5033425;28;20209;-67
2021/06/16 05:13:36;;;;;;;2.97;2.77;;;19.20;99.90;;;;;;5033657;28;20172;-67
2021/06/16 05:16:02;;;;;;;4.80;3.17;;;19.10;99.90;;;;;;5033118;28;20174;-67
2021/06/16 05:18:28;;;;;;;4.17;3.80;;;19.20;99.90;;;;;;5033325;28;20590;-67
2021/06/16 05:20:53;;;;;;;13.47;3.60;;;19.30;99.90;;;;;;5015651;28;20926;-67
2021/06/16 05:23:19;;;;;;;3.50;2.90;;;19.30;99.90;;;;;;5033153;28;20184;-67
2021/06/16 05:25:47;;;;;;;3.77;3.20;;;19.40;99.90;;;;;;5032521;28;20194;-67
2021/06/16 05:28:13;;;;;;;3.30;3.00;;;19.40;99.90;;;;;;5033047;28;20236;-68
2021/06/16 05:30:38;;;;;;;3.50;3.30;;;19.50;99.90;;;;;;5033327;28;20459;-67
2021/06/16 05:33:04;;;;;;;8.70;4.60;;;19.70;99.90;;;;;;5033227;28;20170;-68
2021/06/16 05:35:31;;;;;;;4.67;4.17;;;19.80;99.90;;;;;;5033396;28;20177;-67
2021/06/16 05:37:56;;;;;;;3.97;3.57;;;20.00;99.90;;;;;;5032583;28;20439;-67
2021/06/16 05:40:22;;;;;;;6.20;4.60;;;20.10;99.90;;;;;;5033377;28;20490;-70
2021/06/16 05:42:48;;;;;;;4.23;3.73;;;20.30;99.90;;;;;;5033087;28;20417;-70
2021/06/16 05:45:14;;;;;;;3.87;3.57;;;20.50;99.90;;;;;;5033153;28;20644;-70
2021/06/16 05:47:40;;;;;;;3.93;3.63;;;20.80;99.90;;;;;;5032417;28;20483;-70
2021/06/16 05:50:06;;;;;;;3.53;3.23;;;21.10;99.90;;;;;;5033023;28;20539;-70
2021/06/16 05:52:32;;;;;;;7.07;2.93;;;21.40;99.90;;;;;;5032749;28;20261;-70
2021/06/16 05:54:57;;;;;;;3.00;2.80;;;21.80;99.90;;;;;;5032961;28;20437;-70
2021/06/16 05:57:23;;;;;;;3.77;3.47;;;22.20;99.90;;;;;;5031918;28;20704;-69
2021/06/16 05:59:48;;;;;;;3.97;3.23;;;22.50;99.90;;;;;;5007814;28;20183;-70
2021/06/16 06:02:14;;;;;;;3.43;3.00;;;22.60;99.90;;;;;;5019234;28;20189;-70
2021/06/16 06:04:40;;;;;;;8.20;3.40;;;22.70;99.90;;;;;;5013082;28;20563;-70
2021/06/16 06:07:06;;;;;;;5.37;2.40;;;22.90;99.90;;;;;;5013773;28;20204;-70
2021/06/16 06:09:32;;;;;;;3.33;3.03;;;22.90;99.90;;;;;;5013073;28;20263;-70
2021/06/16 06:11:58;;;;;;;4.57;3.30;;;22.90;99.90;;;;;;5019929;28;20248;-69
2021/06/16 06:14:24;;;;;;;3.83;3.17;;;23.00;99.70;;;;;;5019338;28;20433;-68
2021/06/16 06:16:50;;;;;;;3.57;3.37;;;23.00;99.50;;;;;;5031934;28;20428;-67
2021/06/16 06:19:15;;;;;;;3.53;3.10;;;23.00;99.50;;;;;;5036361;28;20414;-68
2021/06/16 06:21:41;;;;;;;3.80;3.33;;;23.10;99.50;;;;;;5036371;28;20179;-68
2021/06/16 06:24:07;;;;;;;4.57;3.63;;;23.10;99.80;;;;;;5013849;28;20769;-68
2021/06/16 06:26:33;;;;;;;4.10;3.13;;;23.30;99.70;;;;;;5029355;28;20200;-68
2021/06/16 06:28:59;;;;;;;2.47;2.30;;;23.50;98.90;;;;;;5030850;28;20520;-67
2021/06/16 06:31:25;;;;;;;3.80;2.90;;;23.70;98.30;;;;;;5030820;28;21233;-68
2021/06/16 06:33:51;;;;;;;2.93;2.73;;;23.70;96.40;;;;;;5024739;28;20182;-69
2021/06/16 06:36:16;;;;;;;2.90;2.70;;;23.70;96.00;;;;;;5011626;28;20482;-70
2021/06/16 06:38:42;;;;;;;4.13;3.53;;;23.70;95.60;;;;;;5028958;28;20221;-69
2021/06/16 06:41:08;;;;;;;2.83;2.57;;;23.70;96.20;;;;;;5029082;28;20191;-69
2021/06/16 06:43:33;;;;;;;3.07;2.80;;;23.80;96.40;;;;;;5019184;28;20201;-68
2021/06/16 06:45:59;;;;;;;3.13;2.93;;;23.80;95.50;;;;;;5025568;28;20217;-68
2021/06/16 06:48:25;;;;;;;4.20;2.80;;;23.90;95.60;;;;;;5031517;28;20198;-68
2021/06/16 06:50:50;;;;;;;2.90;2.50;;;24.10;95.90;;;;;;5029823;28;20295;-68
2021/06/16 06:53:17;;;;;;;3.70;2.90;;;24.40;95.50;;;;;;5032050;28;20703;-66
2021/06/16 06:55:43;;;;;;;3.50;3.20;;;24.70;95.00;;;;;;5030945;28;20755;-67
2021/06/16 06:58:09;;;;;;;3.23;3.03;;;24.80;94.50;;;;;;5029683;28;20456;-66
2021/06/16 07:00:35;;;;;;;3.40;3.20;;;24.90;94.60;;;;;;5030003;28;20431;-68
2021/06/16 07:03:00;;;;;;;5.07;3.10;;;25.10;93.60;;;;;;5022578;28;20424;-68
2021/06/16 07:05:26;;;;;;;3.23;3.03;;;25.10;92.40;;;;;;5022088;28;20178;-69
2021/06/16 07:07:53;;;;;;;3.07;2.87;;;25.10;91.80;;;;;;5026948;28;20210;-68
2021/06/16 07:10:18;;;;;;;2.97;2.77;;;25.30;92.00;;;;;;5031201;28;20252;-68
2021/06/16 07:12:44;;;;;;;3.60;3.30;;;25.60;92.20;;;;;;5024522;28;20836;-66
2021/06/16 07:15:11;;;;;;;3.20;2.90;;;25.70;91.40;;;;;;5026808;28;21071;-67
2021/06/16 07:17:37;;;;;;;2.80;2.60;;;25.80;91.30;;;;;;5026145;28;20838;-67
2021/06/16 07:20:06;;;;;;;5.33;2.70;;;25.90;91.70;;;;;;5032001;28;20475;-67
2021/06/16 07:22:31;;;;;;;2.50;2.30;;;26.10;91.00;;;;;;5030158;28;20516;-67
2021/06/16 07:24:57;;;;;;;3.30;3.00;;;26.50;90.10;;;;;;5028028;28;20510;-67
2021/06/16 07:27:23;;;;;;;3.77;3.40;;;27.00;88.40;;;;;;5024866;28;20200;-67
2021/06/16 07:29:49;;;;;;;3.60;3.30;;;27.50;88.70;;;;;;5029535;28;21302;-67
2021/06/16 07:32:16;;;;;;;2.80;2.60;;;28.00;87.10;;;;;;5023273;28;20217;-67
2021/06/16 07:34:42;;;;;;;3.37;3.17;;;28.40;84.50;;;;;;5022099;28;20212;-68
2021/06/16 07:37:08;;;;;;;3.50;3.10;;;28.70;82.80;;;;;;5030751;28;20432;-68
2021/06/16 07:39:33;;;;;;;3.40;3.20;;;29.10;80.80;;;;;;5029067;28;20200;-67
2021/06/16 07:41:59;;;;;;;4.00;3.33;;;29.70;79.70;;;;;;5030758;28;20182;-68
2021/06/16 07:44:25;;;;;;;3.13;2.93;;;30.20;77.50;;;;;;5029996;28;20174;-67
2021/06/16 07:46:51;;;;;;;2.60;2.40;;;31.10;76.10;;;;;;5023931;28;20242;-68
2021/06/16 07:49:17;;;;;;;4.27;2.60;;;32.20;70.20;;;;;;5016842;28;20482;-67
2021/06/16 07:51:43;;;;;;;4.97;2.83;;;33.10;67.50;;;;;;5017446;28;20534;-68
2021/06/16 07:54:11;;;;;;;3.27;3.07;;;34.00;64.00;;;;;;5032872;28;20416;-68
2021/06/16 07:56:39;;;;;;;2.80;2.60;;;34.90;62.20;;;;;;5024792;28;20198;-68
2021/06/16 07:59:04;;;;;;;4.63;2.90;;;35.60;58.70;;;;;;5025723;28;20430;-68
2021/06/16 08:01:31;;;;;;;3.37;3.03;;;36.20;56.80;;;;;;5026317;28;20909;-67
2021/06/16 08:03:57;;;;;;;6.57;2.70;;;36.60;55.30;;;;;;5029492;28;20537;-67
2021/06/16 08:06:22;;;;;;;3.20;3.00;;;37.10;53.80;;;;;;5027876;28;20415;-67
2021/06/16 08:08:48;;;;;;;13.60;3.53;;;37.20;53.50;;;;;;5029916;28;20668;-67
2021/06/16 08:11:14;;;;;;;4.40;3.20;;;37.40;53.60;;;;;;5008599;28;20289;-68
2021/06/16 08:13:40;;;;;;;2.77;2.67;;;37.90;52.70;;;;;;5025763;28;20266;-67
2021/06/16 08:16:06;;;;;;;3.33;3.13;;;38.50;50.70;;;;;;5029284;28;20399;-68
2021/06/16 08:18:31;;;;;;;3.90;2.80;;;38.60;50.50;;;;;;5012382;28;20205;-68
2021/06/16 08:20:57;;;;;;;3.77;3.47;;;38.60;50.10;;;;;;5015724;28;20186;-68
2021/06/16 08:23:23;;;;;;;3.30;3.10;;;38.50;50.20;;;;;;5024141;28;20190;-68
2021/06/16 08:25:49;;;;;;;3.30;3.10;;;38.60;50.40;;;;;;5021721;28;20432;-68
2021/06/16 08:28:15;;;;;;;2.87;2.67;;;38.40;50.00;;;;;;5023832;28;20253;-67
2021/06/16 08:30:40;;;;;;;5.43;3.17;;;38.40;49.90;;;;;;5029182;28;20178;-67
2021/06/16 08:33:06;;;;;;;3.13;2.93;;;38.70;49.90;;;;;;5016344;28;20166;-69
2021/06/16 08:35:32;;;;;;;3.30;3.10;;;39.20;48.60;;;;;;5029404;28;20209;-67
2021/06/16 08:37:57;;;;;;;3.50;3.30;;;39.80;47.30;;;;;;5022034;28;20198;-67
2021/06/16 08:40:23;;;;;;;5.23;3.17;;;40.40;46.70;;;;;;5019070;28;20213;-69
2021/06/16 08:42:49;;;;;;;3.03;2.70;;;40.50;46.70;;;;;;5004129;28;20216;-68
2021/06/16 08:45:17;;;;;;;3.33;3.03;;;40.70;46.40;;;;;;5016841;28;20418;-69
2021/06/16 08:47:46;;;;;;;3.80;3.43;;;41.00;45.30;;;;;;5025379;28;20437;-69
2021/06/16 08:50:12;;;;;;;4.90;3.20;;;40.70;44.60;;;;;;5031735;28;20413;-68
2021/06/16 08:52:39;;;;;;;3.47;3.27;;;40.20;45.70;;;;;;5024244;28;20402;-68
2021/06/16 08:55:11;;;;;;;3.17;2.87;;;40.10;45.10;;;;;;5017692;28;20432;-68
2021/06/16 08:57:37;;;;;;;3.30;3.10;;;39.90;45.10;;;;;;5025099;28;20460;-69
2021/06/16 09:00:08;;;;;;;3.87;3.00;;;39.90;44.80;;;;;;5019322;28;20579;-68
2021/06/16 09:02:34;;;;;;;4.00;3.80;;;39.70;45.00;;;;;;5026589;28;20424;-67
2021/06/16 09:05:00;;;;;;;3.17;3.07;;;39.40;44.90;;;;;;5022200;28;20416;-68
2021/06/16 09:07:30;;;;;;;3.40;3.20;;;39.50;44.70;;;;;;5027410;28;20816;-67
2021/06/16 09:10:07;;;;;;;2.80;2.70;;;39.40;45.30;;;;;;5030018;28;20301;-66
2021/06/16 09:12:35;;;;;;;3.23;3.03;;;39.30;44.60;;;;;;5026346;28;20416;-65
2021/06/16 09:15:01;;;;;;;2.67;2.47;;;39.40;45.70;;;;;;5032624;28;20416;-66
2021/06/16 09:17:27;;;;;;;3.20;2.90;;;39.70;44.00;;;;;;5032911;28;20429;-66
2021/06/16 09:19:57;;;;;;;3.47;3.27;;;40.20;43.90;;;;;;5033054;28;20564;-68
2021/06/16 09:22:32;;;;;;;3.60;3.40;;;40.30;43.80;;;;;;5030753;28;20452;-67
2021/06/16 09:25:02;;;;;;;3.63;3.43;;;40.20;43.40;;;;;;5026754;28;20409;-69
2021/06/16 09:27:47;;;;;;;3.27;3.07;;;39.90;43.80;;;;;;5025071;28;20448;-67
2021/06/16 09:30:19;;;;;;;3.37;3.07;;;39.90;44.00;;;;;;5031691;28;20417;-68
2021/06/16 09:32:49;;;;;;;3.50;3.30;;;40.40;43.70;;;;;;5028111;28;20973;-69
2021/06/16 09:35:32;;;;;;;3.17;2.97;;;40.40;43.60;;;;;;5019800;28;20441;-67
2021/06/16 09:38:00;;;;;;;3.53;3.23;;;40.40;43.20;;;;;;5025993;28;20428;-67
2021/06/16 09:40:25;;;;;;;3.27;3.07;;;40.50;42.90;;;;;;5029425;28;20463;-68
2021/06/16 09:43:14;;;;;;;3.60;3.30;;;40.20;43.10;;;;;;5023913;28;20487;-68
2021/06/16 09:45:43;;;;;;;3.40;3.20;;;40.20;43.20;;;;;;5029152;28;20194;-68
2021/06/16 09:48:35;;;;;;;2.50;2.40;;;40.10;42.90;;;;;;5025377;28;20773;-68
2021/06/16 09:51:38;;;;;;;2.57;2.47;;;40.20;43.00;;;;;;5017364;28;20413;-66
2021/06/16 09:54:18;;;;;;;2.93;2.73;;;40.40;41.50;;;;;;5026632;28;20462;-66
2021/06/16 09:57:02;;;;;;;4.00;3.80;;;40.80;42.70;;;;;;5033871;28;20519;-66
2021/06/16 09:59:37;;;;;;;3.57;3.37;;;41.20;42.00;;;;;;5025966;28;20438;-66
2021/06/16 10:02:03;;;;;;;4.60;3.50;;;41.30;41.10;;;;;;5031295;28;20430;-66
2021/06/16 10:04:47;;;;;;;3.67;3.37;;;41.60;40.60;;;;;;5028155;28;20444;-66
2021/06/16 10:07:16;;;;;;;3.67;3.47;;;41.50;41.30;;;;;;5025587;28;20534;-68
2021/06/16 10:09:54;;;;;;;3.13;2.93;;;41.50;40.30;;;;;;5031947;28;20420;-66
2021/06/16 10:12:22;;;;;;;3.70;3.50;;;41.70;39.80;;;;;;5021709;28;20864;-66
2021/06/16 10:14:48;;;;;;;5.20;3.50;;;42.10;39.80;;;;;;5023867;28;20418;-66
2021/06/16 10:17:16;;;;;;;4.83;4.57;;;42.20;39.90;;;;;;5021331;28;20487;-68
2021/06/16 10:19:43;;;;;;;3.30;3.20;;;41.60;40.50;;;;;;5033842;28;20518;-68
2021/06/16 10:22:11;;;;;;;3.40;3.20;;;41.30;40.30;;;;;;5032374;28;20425;-67
2021/06/16 10:24:37;;;;;;;3.97;3.67;;;41.50;40.70;;;;;;5023189;28;20417;-67
2021/06/16 10:27:06;;;;;;;3.40;3.20;;;41.40;39.60;;;;;;5025139;28;20484;-67
2021/06/16 10:29:35;;;;;;;3.00;2.80;;;41.10;39.60;;;;;;5028163;28;20512;-66
2021/06/16 10:32:05;;;;;;;3.40;3.20;;;41.00;39.50;;;;;;5022834;28;20451;-66
2021/06/16 10:34:53;;;;;;;3.43;3.23;;;41.00;39.60;;;;;;5016009;28;20517;-67
2021/06/16 10:37:31;;;;;;;3.00;2.80;;;40.90;39.50;;;;;;5023199;28;20469;-67
2021/06/16 10:40:19;;;;;;;3.10;2.90;;;39.90;39.10;;;;;;5030517;28;20471;-67
2021/06/16 10:43:03;;;;;;;3.47;3.27;;;39.70;39.50;;;;;;5024791;28;20723;-67
2021/06/16 10:45:34;;;;;;;2.97;2.80;;;39.80;40.00;;;;;;5024065;28;20507;-67
2021/06/16 10:48:04;;;;;;;2.97;2.77;;;39.70;39.80;;;;;;5033158;28;20465;-68
2021/06/16 10:50:45;;;;;;;3.40;3.20;;;39.60;39.60;;;;;;5011520;28;20413;-68
2021/06/16 10:53:15;;;;;;;3.27;3.07;;;39.60;40.10;;;;;;5024610;28;20406;-67
2021/06/16 10:55:56;;;;;;;2.77;2.57;;;39.10;40.40;;;;;;5031004;28;20410;-66
2021/06/16 10:58:42;;;;;;;3.20;3.00;;;38.90;40.40;;;;;;5023416;28;20791;-66
2021/06/16 11:04:29;;;;;;;3.20;3.00;;;39.20;40.00;;;;;;5746082;22;20481;-66
2021/06/16 11:06:56;;;;;;;3.40;3.10;;;39.10;40.00;;;;;;5034569;28;20409;-67
2021/06/16 11:09:56;;;;;;;3.57;3.27;;;38.90;40.30;;;;;;5017419;28;20399;-65
2021/06/16 11:12:52;;;;;;;4.97;4.67;;;38.40;41.20;;;;;;5018798;28;20450;-65
2021/06/16 11:15:24;;;;;;;3.43;3.23;;;37.60;41.70;;;;;;5033587;28;20456;-67
2021/06/16 11:17:50;;;;;;;3.30;2.97;;;36.80;43.90;;;;;;5026034;28;20450;-66
2021/06/16 11:20:23;;;;;;;3.00;2.53;;;36.00;43.90;;;;;;5015446;28;20489;-65
2021/06/16 11:22:59;;;;;;;2.97;2.77;;;35.30;43.90;;;;;;5015772;28;20479;-66
2021/06/16 11:25:35;;;;;;;3.03;2.83;;;34.60;44.50;;;;;;5015200;28;20453;-66
2021/06/16 11:28:18;;;;;;;3.33;3.03;;;33.80;45.50;;;;;;5015388;28;20381;-66
2021/06/16 11:30:48;;;;;;;3.00;2.77;;;33.40;47.10;;;;;;5033937;28;20434;-65
2021/06/16 11:33:17;;;;;;;2.83;2.63;;;33.10;47.10;;;;;;5034499;28;20405;-69
2021/06/16 11:36:00;;;;;;;2.93;2.73;;;32.80;47.60;;;;;;5034525;28;22515;-68
2021/06/16 11:38:35;;;;;;;2.67;2.47;;;32.60;48.20;;;;;;5034978;28;20409;-68
2021/06/16 11:41:17;;;;;;;3.23;3.03;;;32.30;48.70;;;;;;5034813;28;20511;-68
2021/06/16 11:44:04;;;;;;;2.77;2.60;;;32.20;48.60;;;;;;5031681;28;20850;-68
2021/06/16 11:46:35;;;;;;;2.80;2.60;;;32.10;49.30;;;;;;5034532;28;20439;-68
2021/06/16 11:49:11;;;;;;;2.67;2.57;;;32.00;49.10;;;;;;5035098;28;20376;-69
2021/06/16 11:51:50;;;;;;;3.27;3.00;;;32.00;49.90;;;;;;5034669;28;20813;-69
2021/06/16 11:54:28;;;;;;;2.33;2.13;;;32.00;49.60;;;;;;5019788;28;20488;-70
2021/06/16 11:57:01;;;;;;;3.47;3.17;;;32.10;49.00;;;;;;5028754;28;20564;-69
2021/06/16 11:59:30;;;;;;;3.10;2.80;;;31.90;50.40;;;;;;5034003;28;20452;-68
2021/06/16 12:02:18;;;;;;;3.20;2.50;;;31.90;49.40;;;;;;5022280;28;20414;-70
2021/06/16 12:04:58;;;;;;;3.07;2.87;;;31.80;49.40;;;;;;5019501;28;20770;-68
2021/06/16 12:07:29;;;;;;;4.80;2.80;;;31.80;49.30;;;;;;5010602;28;20938;-70
2021/06/16 12:09:57;;;;;;;2.77;2.60;;;32.00;50.10;;;;;;5014500;28;20410;-70
2021/06/16 12:12:24;;;;;;;3.00;2.53;;;32.10;49.90;;;;;;5033604;28;20452;-68
2021/06/16 12:15:08;;;;;;;2.77;2.67;;;32.20;49.40;;;;;;5033483;28;20918;-68
2021/06/16 12:17:51;;;;;;;3.30;3.07;;;32.10;49.10;;;;;;5032250;28;20432;-68
2021/06/16 12:20:17;;;;;;;2.97;2.77;;;32.00;48.90;;;;;;5034006;28;20862;-68
2021/06/16 12:22:42;;;;;;;3.70;3.40;;;31.80;49.00;;;;;;5033890;28;20417;-69
2021/06/16 12:25:08;;;;;;;3.80;3.50;;;31.70;49.70;;;;;;5033025;28;20194;-71
2021/06/16 12:27:34;;;;;;;3.27;2.90;;;31.70;49.50;;;;;;5031472;28;20541;-69
2021/06/16 12:30:01;;;;;;;2.90;2.70;;;31.80;49.80;;;;;;4996519;28;20186;-69
2021/06/16 12:32:35;;;;;;;2.80;2.60;;;31.90;48.70;;;;;;5013994;28;20629;-69
2021/06/16 12:37:53;;;;;;;2.30;2.20;;;32.00;49.40;;;;;;5032041;28;20972;-68
2021/06/16 12:40:31;;;;;;;2.73;2.53;;;32.00;49.00;;;;;;5033875;28;20449;-68
2021/06/16 12:42:56;;;;;;;2.90;2.70;;;32.00;49.00;;;;;;5034140;28;20397;-68
2021/06/16 12:45:40;;;;;;;2.97;2.77;;;32.00;48.60;;;;;;5033647;28;20961;-69
2021/06/16 12:48:27;;;;;;;2.87;2.67;;;31.90;49.00;;;;;;5033597;28;20230;-69
2021/06/16 12:51:02;;;;;;;3.00;2.80;;;31.90;50.10;;;;;;5033888;28;20413;-68
2021/06/16 12:53:30;;;;;;;2.83;2.63;;;31.90;49.60;;;;;;5033770;28;20375;-68
2021/06/16 12:56:03;;;;;;;2.67;2.50;;;31.90;50.00;;;;;;5032979;28;20405;-68
2021/06/16 12:58:29;;;;;;;3.23;2.87;;;32.00;49.60;;;;;;5033507;28;20409;-70
2021/06/16 13:00:57;;;;;;;3.30;2.80;;;32.00;50.30;;;;;;5033701;28;20783;-68
2021/06/16 13:03:28;;;;;;;2.90;2.70;;;31.90;48.80;;;;;;5033831;28;20401;-68